Terminal Aerodrome Forecast
Issued by NWS

Current Version | Previous Version | Graphics & Text | Print | Product List | Glossary On
Versions: 1 2 3 4 5 6 7 8 9 10 11 12 13 14 15 16 17 18 19
000
FTUS41 KRNK 152327
TAFLWB
TAF
KLWB 152327Z 1600/1624 23009KT P6SM SCT045
     FM160600 25010KT P6SM VCSH OVC030
     FM161100 26012KT 5SM -SHRA OVC025
     FM161600 31008G18KT 4SM -SHRA OVC015=

USA.gov is the U.S. government's official web portal to all federal, state and local government web resources and services.